Time;durP1;ratioP1;P1;durP2;ratioP2;P2;SDS_P1;SDS_P2;PMS_P1;PMS_P2;Temp;Humidity;BMP_temperature;BMP_pressure;BME280_temperature;BME280_humidity;BME280_pressure;Samples;Min_cycle;Max_cycle;Signal;HPM_P1;HPM_P2
2022/08/22 00:02:08;;;;;;;;;7.00;6.50;;;;;22.48;41.23;100988.13;5081333;28;45394;-57
2022/08/22 00:05:10;;;;;;;;;9.00;6.75;;;;;22.48;41.92;100987.28;5062793;28;45304;-58
2022/08/22 00:07:45;;;;;;;;;9.50;6.75;;;;;22.47;41.59;100985.53;5070866;28;45224;-58
2022/08/22 00:10:20;;;;;;;;;7.25;7.25;;;;;22.47;41.59;100982.88;5082800;28;46240;-58
2022/08/22 00:12:50;;;;;;;;;7.50;5.00;;;;;22.47;41.72;100990.91;5083126;28;45382;-58
2022/08/22 00:15:30;;;;;;;;;7.50;6.50;;;;;22.46;41.44;100983.81;5083010;28;45408;-58
2022/08/22 00:18:17;;;;;;;;;6.25;6.25;;;;;22.47;41.62;100980.19;5082751;28;45242;-59
2022/08/22 00:20:57;;;;;;;;;7.50;2.75;;;;;22.45;41.97;100979.41;5082575;27;45311;-58
2022/08/22 00:23:34;;;;;;;;;6.75;6.75;;;;;22.45;41.26;100974.06;5082813;28;45353;-58
2022/08/22 00:26:02;;;;;;;;;8.00;6.00;;;;;22.45;41.44;100977.63;5082821;28;45307;-58
2022/08/22 00:28:33;;;;;;;;;6.00;5.00;;;;;22.46;41.71;100962.41;5082744;28;45227;-58
2022/08/22 00:31:20;;;;;;;;;6.75;5.50;;;;;22.45;41.49;100960.66;5067700;28;47171;-58
2022/08/22 00:33:50;;;;;;;;;5.00;2.00;;;;;22.43;41.27;100949.19;5067093;28;45264;-58
2022/08/22 00:36:22;;;;;;;;;5.25;4.50;;;;;22.47;41.63;100958.78;5062472;28;45386;-59
2022/08/22 00:39:25;;;;;;;;;6.00;6.00;;;;;22.45;41.63;100949.97;5062442;28;45174;-58
2022/08/22 00:42:20;;;;;;;;;6.75;6.75;;;;;22.46;41.30;100962.41;5043419;28;45296;-58
2022/08/22 00:44:45;;;;;;;;;9.75;6.75;;;;;22.46;41.29;100952.53;5062029;28;45298;-58
2022/08/22 00:47:37;;;;;;;;;10.00;5.00;;;;;22.46;41.74;100944.50;5061271;28;45229;-58
2022/08/22 00:50:33;;;;;;;;;6.50;5.25;;;;;22.47;41.83;100954.25;5066791;28;45438;-58
2022/08/22 00:53:24;;;;;;;;;7.00;5.50;;;;;22.47;41.84;100959.63;5061994;28;46246;-58
2022/08/22 00:56:00;;;;;;;;;5.00;5.00;;;;;22.47;41.80;100962.28;5062004;28;45550;-58
2022/08/22 00:58:58;;;;;;;;;7.00;6.00;;;;;22.49;41.75;100956.84;5073507;28;45361;-58
2022/08/22 01:01:36;;;;;;;;;6.50;4.75;;;;;22.49;41.63;100960.41;5076613;28;45536;-58
2022/08/22 01:04:23;;;;;;;;;5.25;5.00;;;;;22.49;41.51;100954.16;5062978;27;46205;-58
2022/08/22 01:07:06;;;;;;;;;7.00;4.75;;;;;22.47;41.60;100954.25;5061883;28;45435;-58
2022/08/22 01:09:54;;;;;;;;;6.75;5.00;;;;;22.47;41.51;100961.44;5067939;28;45289;-58
2022/08/22 01:13:11;;;;;;;;;6.00;6.00;;;;;22.46;41.67;100957.03;5061926;28;45224;-58
2022/08/22 01:15:39;;;;;;;;;6.25;6.00;;;;;22.47;41.74;100970.31;5068798;28;46048;-58
2022/08/22 01:18:51;;;;;;;;;5.50;5.25;;;;;22.47;41.27;100974.84;5081768;28;45287;-58
2022/08/22 01:21:44;;;;;;;;;6.75;5.50;;;;;22.47;41.81;100969.47;5006198;28;45318;-58
2022/08/22 01:24:32;;;;;;;;;6.75;5.50;;;;;22.48;41.76;100976.56;5061789;28;45247;-58
2022/08/22 01:27:46;;;;;;;;;6.50;6.00;;;;;22.47;41.70;100969.47;5066159;28;47458;-58
2022/08/22 01:30:45;;;;;;;;;6.75;6.00;;;;;22.46;41.78;100968.59;5081992;27;45272;-58
2022/08/22 01:33:38;;;;;;;;;6.00;5.00;;;;;22.45;41.79;100974.06;5081871;28;45160;-58
2022/08/22 01:36:12;;;;;;;;;6.25;6.25;;;;;22.44;41.84;100965.19;5081662;27;45320;-58
2022/08/22 01:38:55;;;;;;;;;5.00;5.00;;;;;22.44;42.14;100951.78;5070032;28;47064;-58
2022/08/22 01:41:48;;;;;;;;;7.75;6.00;;;;;22.44;41.69;100954.47;5080478;28;45420;-58
2022/08/22 01:44:25;;;;;;;;;5.00;5.00;;;;;22.44;41.94;100941.09;5081697;27;45181;-58
2022/08/22 01:47:03;;;;;;;;;7.25;4.50;;;;;22.42;41.83;100942.13;5081427;28;45482;-58
2022/08/22 01:49:32;;;;;;;;;4.25;4.25;;;;;22.43;41.73;100950.06;5080331;28;45300;-58
2022/08/22 01:52:26;;;;;;;;;6.00;4.25;;;;;22.40;41.59;100937.72;5073955;28;45485;-58
2022/08/22 01:55:06;;;;;;;;;2.00;2.00;;;;;22.43;41.87;100934.00;5081694;27;45298;-58
2022/08/22 01:57:48;;;;;;;;;4.50;3.00;;;;;22.45;41.82;100933.91;5079428;28;45389;-58
2022/08/22 02:00:17;;;;;;;;;6.00;6.00;;;;;22.45;41.47;100933.91;5081179;28;45220;-58
2022/08/22 02:03:02;;;;;;;;;6.50;4.50;;;;;22.44;42.06;100926.81;5072342;28;45372;-58
2022/08/22 02:05:37;;;;;;;;;7.75;5.00;;;;;22.40;42.11;100936.84;5060636;28;45464;-58
2022/08/22 02:08:20;;;;;;;;;5.25;5.25;;;;;22.40;41.77;100947.56;5061049;28;45398;-58
2022/08/22 02:11:05;;;;;;;;;7.50;4.00;;;;;22.38;42.01;100947.66;5060820;28;45324;-58
2022/08/22 02:13:56;;;;;;;;;4.00;3.25;;;;;22.36;41.83;100949.56;5060734;28;45431;-58
2022/08/22 02:16:36;;;;;;;;;6.00;3.00;;;;;22.36;41.62;100948.66;5060691;28;45160;-58
2022/08/22 02:19:10;;;;;;;;;4.00;3.00;;;;;22.34;41.57;100954.13;5060624;28;45387;-58
2022/08/22 02:22:01;;;;;;;;;3.75;2.75;;;;;22.33;41.73;100955.06;5072809;28;46973;-58
2022/08/22 02:24:28;;;;;;;;;5.25;4.50;;;;;22.31;41.80;100946.25;5059311;28;45351;-58
2022/08/22 02:27:20;;;;;;;;;5.50;4.25;;;;;22.31;41.61;100945.41;5060953;28;45229;-58
2022/08/22 02:30:13;;;;;;;;;5.00;5.00;;;;;22.29;41.32;100942.84;5052461;28;46367;-57
2022/08/22 02:32:39;;;;;;;;;5.00;5.00;;;;;22.27;42.04;100947.41;5053887;28;46239;-58
2022/08/22 02:35:23;;;;;;;;;4.75;3.75;;;;;22.26;41.95;100950.19;5060386;28;45377;-58
2022/08/22 02:38:04;;;;;;;;;3.25;2.50;;;;;22.23;41.35;100946.72;5060572;28;45386;-58
2022/08/22 02:40:38;;;;;;;;;6.25;5.50;;;;;22.21;41.58;100943.31;5060442;28;45169;-58
2022/08/22 02:43:25;;;;;;;;;6.00;3.50;;;;;22.16;41.40;100945.41;5060347;28;46135;-58
2022/08/22 02:45:59;;;;;;;;;4.00;4.00;;;;;22.10;41.37;100942.22;5060125;28;45342;-58
2022/08/22 02:48:48;;;;;;;;;5.00;4.25;;;;;22.10;41.44;100952.91;5060581;28;45245;-58
2022/08/22 02:51:19;;;;;;;;;8.25;4.00;;;;;22.07;41.48;100943.25;5066778;28;45324;-58
2022/08/22 02:53:55;;;;;;;;;5.50;4.00;;;;;22.05;41.93;100945.19;5080391;28;45258;-58
2022/08/22 02:56:30;;;;;;;;;6.00;3.00;;;;;22.01;41.87;100944.50;5080722;28;45228;-58
2022/08/22 02:59:25;;;;;;;;;5.00;5.00;;;;;22.00;41.43;100944.56;5080294;28;45304;-58
2022/08/22 03:01:51;;;;;;;;;5.00;5.00;;;;;21.98;41.68;100941.13;5079223;28;45488;-58
2022/08/22 03:04:44;;;;;;;;;5.75;3.00;;;;;21.94;41.84;100942.25;5059808;28;47081;-58
2022/08/22 03:07:18;;;;;;;;;4.00;2.00;;;;;21.91;41.44;100943.28;5059931;28;45280;-58
2022/08/22 03:10:16;;;;;;;;;3.75;3.75;;;;;21.87;41.73;100944.44;5059580;28;45303;-58
2022/08/22 03:13:05;;;;;;;;;4.50;4.00;;;;;21.83;41.46;100938.38;5070068;28;45307;-58
2022/08/22 03:15:49;;;;;;;;;2.00;2.00;;;;;21.80;41.22;100935.91;5080166;28;46446;-58
2022/08/22 03:18:14;;;;;;;;;3.00;3.00;;;;;21.78;41.73;100940.47;5080260;28;45264;-58
2022/08/22 03:21:18;;;;;;;;;7.75;6.00;;;;;21.75;42.05;100944.19;5080033;28;45299;-58
2022/08/22 03:23:47;;;;;;;;;6.00;5.25;;;;;21.73;42.28;100948.75;5077215;28;45221;-58
2022/08/22 03:26:37;;;;;;;;;5.25;4.00;;;;;21.71;42.11;100944.44;5079798;28;45439;-58
2022/08/22 03:29:16;;;;;;;;;4.00;4.00;;;;;21.67;41.67;100949.13;5080050;28;45362;-58
2022/08/22 03:32:14;;;;;;;;;6.75;4.00;;;;;21.66;41.51;100950.09;5079956;28;45417;-58
2022/08/22 03:35:00;;;;;;;;;5.00;4.75;;;;;21.63;42.24;100942.22;5079706;27;45461;-58
2022/08/22 03:37:39;;;;;;;;;3.00;3.00;;;;;21.60;42.03;100937.06;5079243;28;45452;-58
2022/08/22 03:40:42;;;;;;;;;4.25;2.50;;;;;21.59;41.68;100938.84;5078681;28;45295;-58
2022/08/22 03:43:22;;;;;;;;;5.25;3.75;;;;;21.56;41.86;100946.22;5071682;28;45357;-57
2022/08/22 03:45:57;;;;;;;;;5.00;5.00;;;;;21.54;41.70;100948.94;5075305;28;45174;-57
2022/08/22 03:48:44;;;;;;;;;5.00;5.00;;;;;21.54;42.23;100945.41;5079791;28;46443;-57
2022/08/22 03:51:29;;;;;;;;;2.50;2.50;;;;;21.52;42.04;100934.81;5070956;28;45232;-57
2022/08/22 03:54:22;;;;;;;;;4.50;3.25;;;;;21.50;42.34;100938.50;5079879;28;45302;-58
2022/08/22 03:57:05;;;;;;;;;5.00;3.00;;;;;21.48;42.41;100938.56;5079825;28;45212;-58
2022/08/22 03:59:48;;;;;;;;;4.75;3.00;;;;;21.47;42.25;100941.34;5079312;28;45306;-57
2022/08/22 04:02:39;;;;;;;;;6.75;3.75;;;;;21.45;41.83;100937.91;5075820;28;45325;-57
2022/08/22 04:05:32;;;;;;;;;6.00;4.00;;;;;21.43;41.94;100930.84;5042389;28;45437;-57
2022/08/22 04:08:07;;;;;;;;;3.50;2.00;;;;;21.42;41.84;100934.47;5059197;28;45247;-57
2022/08/22 04:11:06;;;;;;;;;3.75;3.75;;;;;21.41;42.33;100926.53;5058990;28;45236;-58
2022/08/22 04:13:53;;;;;;;;;12.25;11.25;;;;;21.40;42.08;100924.81;5059200;28;45330;-57
2022/08/22 04:16:50;;;;;;;;;7.75;7.75;;;;;21.39;42.50;100925.75;5059239;28;45501;-57
2022/08/22 04:19:22;;;;;;;;;5.75;4.25;;;;;21.37;41.98;100915.16;5058808;28;45460;-58
2022/08/22 04:21:56;;;;;;;;;4.00;4.00;;;;;21.36;41.99;100918.78;5059574;28;46586;-57
2022/08/22 04:25:12;;;;;;;;;4.25;3.50;;;;;21.34;41.98;100919.81;5062572;28;45327;-57
2022/08/22 04:28:16;;;;;;;;;7.00;5.00;;;;;21.31;42.57;100926.19;5040165;28;45466;-57
2022/08/22 04:30:49;;;;;;;;;4.00;4.00;;;;;21.27;42.68;100932.66;5071481;28;45426;-57
2022/08/22 04:33:44;;;;;;;;;5.25;4.50;;;;;21.24;42.29;100931.03;5061785;28;45579;-57
2022/08/22 04:36:20;;;;;;;;;4.00;4.00;;;;;21.23;42.55;100926.63;5062326;28;45403;-57
2022/08/22 04:38:47;;;;;;;;;7.25;5.00;;;;;21.21;42.51;100920.50;5062646;28;45412;-57
2022/08/22 04:41:20;;;;;;;;;4.00;4.00;;;;;21.21;42.53;100925.00;5062126;28;45449;-57
2022/08/22 04:44:03;;;;;;;;;7.00;5.50;;;;;21.20;42.37;100932.13;5062238;28;45431;-57
2022/08/22 04:46:39;;;;;;;;;6.50;5.25;;;;;21.17;42.20;100924.28;5070596;28;45235;-57
2022/08/22 04:49:18;;;;;;;;;3.75;2.50;;;;;21.15;42.67;100923.50;5082336;28;45274;-57
2022/08/22 04:52:09;;;;;;;;;5.75;5.00;;;;;21.11;42.30;100917.47;5073622;28;45407;-57
2022/08/22 04:55:09;;;;;;;;;3.50;3.50;;;;;21.10;42.61;100922.91;5082577;28;46056;-57
2022/08/22 04:58:19;;;;;;;;;4.00;4.00;;;;;21.06;42.76;100937.38;5010746;28;45398;-58
2022/08/22 05:01:11;;;;;;;;;5.00;4.75;;;;;21.03;43.12;100946.44;5059279;28;45412;-57
2022/08/22 05:04:08;;;;;;;;;5.00;4.00;;;;;21.02;42.83;100951.84;5061560;28;45231;-57
2022/08/22 05:06:41;;;;;;;;;9.00;6.75;;;;;21.01;42.91;100955.47;5061807;28;45297;-57
2022/08/22 05:09:14;;;;;;;;;5.00;4.75;;;;;20.99;42.78;100946.69;5061917;28;45190;-57
2022/08/22 05:11:41;;;;;;;;;5.00;5.00;;;;;20.96;43.17;100942.38;5062084;28;45407;-57
2022/08/22 05:14:38;;;;;;;;;5.25;4.00;;;;;21.00;42.75;100956.41;5061831;28;45303;-57
2022/08/22 05:17:07;;;;;;;;;5.75;5.25;;;;;20.99;43.08;100968.03;5061420;28;46002;-56
2022/08/22 05:19:37;;;;;;;;;6.75;5.00;;;;;20.99;42.63;100987.59;5061374;28;45260;-57
2022/08/22 05:22:05;;;;;;;;;6.75;4.00;;;;;20.99;43.33;100979.59;5061673;28;45181;-57
2022/08/22 05:24:38;;;;;;;;;5.50;4.50;;;;;20.99;43.45;100968.91;5061636;28;45299;-57
2022/08/22 05:27:10;;;;;;;;;4.00;4.00;;;;;20.98;43.50;100964.53;5068349;28;47272;-57
2022/08/22 05:29:39;;;;;;;;;6.00;5.75;;;;;20.98;42.93;100966.31;5081845;28;45247;-57
2022/08/22 05:32:10;;;;;;;;;5.50;5.50;;;;;20.97;43.61;100961.91;5081713;28;45375;-57
2022/08/22 05:34:39;;;;;;;;;5.25;4.00;;;;;20.98;43.55;100960.97;5079565;28;45509;-57
2022/08/22 05:37:13;;;;;;;;;11.25;5.00;;;;;20.99;43.36;100968.03;5081644;28;46379;-57
2022/08/22 05:39:45;;;;;;;;;4.75;4.00;;;;;20.98;43.17;100971.66;5081665;28;45274;-57
2022/08/22 05:42:17;;;;;;;;;4.00;3.00;;;;;21.01;43.14;100977.69;5080415;28;45432;-57
2022/08/22 05:44:42;;;;;;;;;5.25;5.25;;;;;21.03;43.12;100985.63;5081432;28;45350;-57
2022/08/22 05:47:22;;;;;;;;;4.25;4.00;;;;;21.05;43.58;100989.94;5080331;28;45351;-57
2022/08/22 05:50:02;;;;;;;;;5.50;5.00;;;;;21.06;43.29;100991.66;5078018;28;45247;-57
2022/08/22 05:53:05;;;;;;;;;5.50;4.25;;;;;21.07;43.68;100990.72;5078314;28;45322;-57
2022/08/22 05:56:01;;;;;;;;;7.00;5.00;;;;;21.09;43.67;100993.31;5081284;28;45224;-57
2022/08/22 05:58:42;;;;;;;;;4.50;4.50;;;;;21.11;43.65;100986.09;5081249;27;45409;-57
2022/08/22 06:01:21;;;;;;;;;6.00;6.00;;;;;21.12;43.21;100990.50;5081129;28;45321;-57
2022/08/22 06:04:08;;;;;;;;;8.00;4.50;;;;;21.14;43.52;100988.56;5064415;27;45390;-57
2022/08/22 06:06:42;;;;;;;;;8.25;7.00;;;;;21.13;43.64;100986.00;5060839;28;45516;-57
2022/08/22 06:09:16;;;;;;;;;5.00;4.50;;;;;21.18;43.41;100999.97;5060974;28;46457;-57
2022/08/22 06:11:55;;;;;;;;;3.75;3.00;;;;;21.13;43.18;100988.66;5060905;28;45504;-56
2022/08/22 06:14:36;;;;;;;;;5.75;5.50;;;;;21.21;43.61;100997.97;5061372;28;45323;-56
2022/08/22 06:17:16;;;;;;;;;7.25;5.50;;;;;21.22;43.44;100993.50;5060611;28;45330;-57
2022/08/22 06:19:46;;;;;;;;;5.25;5.25;;;;;21.25;43.86;101004.88;5072746;28;45377;-57
2022/08/22 06:22:20;;;;;;;;;7.00;7.00;;;;;21.27;43.80;101004.81;5060788;28;45317;-57
2022/08/22 06:24:48;;;;;;;;;7.75;6.75;;;;;21.29;43.54;101007.41;5060443;28;45327;-57
2022/08/22 06:27:17;;;;;;;;;5.25;5.25;;;;;21.29;43.51;100991.38;5060576;28;45419;-57
2022/08/22 06:29:48;;;;;;;;;5.75;5.25;;;;;21.33;43.37;100990.25;5060336;28;45251;-57
2022/08/22 06:32:29;;;;;;;;;6.50;6.00;;;;;21.36;43.48;100990.94;5060479;28;45411;-57
2022/08/22 06:35:19;;;;;;;;;6.75;5.75;;;;;21.39;43.62;100995.25;5060265;28;45231;-57
2022/08/22 06:37:47;;;;;;;;;5.50;5.50;;;;;21.42;43.61;100998.63;5059912;28;45768;-57
2022/08/22 06:40:15;;;;;;;;;13.25;8.00;;;;;21.46;43.89;100999.31;5060168;28;46079;-57
2022/08/22 06:42:45;;;;;;;;;9.25;9.00;;;;;21.47;43.65;101000.16;5060193;28;45624;-58
2022/08/22 06:45:18;;;;;;;;;5.25;5.25;;;;;21.51;43.38;101002.59;5059538;28;45275;-57
2022/08/22 06:48:03;;;;;;;;;8.50;7.50;;;;;21.53;44.07;101000.66;5060092;28;45352;-58
2022/08/22 06:50:32;;;;;;;;;7.50;6.00;;;;;21.56;43.63;101002.38;5048988;28;46110;-57
2022/08/22 06:53:10;;;;;;;;;8.25;6.00;;;;;21.58;43.93;101000.44;5080415;27;45306;-57
2022/08/22 06:55:39;;;;;;;;;6.00;5.25;;;;;21.59;43.92;100995.00;5080525;28;45594;-57
2022/08/22 06:58:14;;;;;;;;;6.00;5.00;;;;;21.63;43.46;100998.38;5080460;28;45347;-57
2022/08/22 07:00:42;;;;;;;;;8.50;6.00;;;;;21.66;43.56;100994.66;5078253;28;47152;-58
2022/08/22 07:03:32;;;;;;;;;8.00;6.00;;;;;21.71;44.21;100981.88;5068700;28;45291;-58
2022/08/22 07:05:58;;;;;;;;;6.25;4.75;;;;;21.73;44.20;100988.03;5060266;28;45334;-58
2022/08/22 07:08:25;;;;;;;;;7.00;5.75;;;;;21.79;44.00;101000.19;5059785;28;45435;-57
2022/08/22 07:11:13;;;;;;;;;6.75;5.25;;;;;21.83;44.18;100997.22;5059807;28;45343;-57
2022/08/22 07:13:46;;;;;;;;;7.00;5.00;;;;;21.86;43.52;101009.56;5051596;28;46359;-58
2022/08/22 07:16:11;;;;;;;;;8.50;7.00;;;;;21.89;44.19;101014.75;5059823;28;45292;-57
2022/08/22 07:18:47;;;;;;;;;7.00;5.75;;;;;21.91;43.98;101013.72;5059526;28;45260;-58
2022/08/22 07:21:24;;;;;;;;;5.50;5.00;;;;;21.97;43.97;101017.00;5059690;28;46288;-58
2022/08/22 07:23:51;;;;;;;;;6.50;4.50;;;;;21.99;43.65;101018.63;5059811;28;45221;-58
2022/08/22 07:26:48;;;;;;;;;4.50;2.50;;;;;22.06;43.90;101027.13;5059796;28;45390;-57
2022/08/22 07:29:23;;;;;;;;;6.00;5.25;;;;;22.08;43.59;101022.56;5039579;28;45506;-58
2022/08/22 07:32:09;;;;;;;;;7.25;7.25;;;;;22.13;43.56;101022.31;5059767;28;45518;-58
2022/08/22 07:34:52;;;;;;;;;7.50;4.75;;;;;22.17;43.70;101031.88;5059418;28;45487;-58
2022/08/22 07:37:39;;;;;;;;;7.00;5.00;;;;;22.21;43.43;101038.78;5059663;28;45272;-58
2022/08/22 07:40:10;;;;;;;;;8.25;6.75;;;;;22.26;44.04;101028.66;5068094;28;45596;-58
2022/08/22 07:43:03;;;;;;;;;7.75;6.00;;;;;22.28;43.65;101026.75;5079513;28;46303;-58
2022/08/22 07:45:54;;;;;;;;;6.75;5.25;;;;;22.35;43.88;101032.59;5079627;28;45384;-71
2022/08/22 07:48:25;;;;;;;;;8.25;5.00;;;;;22.40;43.48;101025.19;5073769;28;45269;-65
2022/08/22 07:51:02;;;;;;;;;8.75;5.00;;;;;22.46;43.64;101019.47;5070879;28;45405;-63
2022/08/22 07:53:37;;;;;;;;;6.50;5.00;;;;;22.52;43.50;101016.44;5079637;28;46473;-63
2022/08/22 07:56:06;;;;;;;;;4.75;4.75;;;;;22.56;43.65;101017.09;5080746;28;45299;-60
2022/08/22 07:58:36;;;;;;;;;5.25;4.25;;;;;22.65;43.84;101029.09;5083364;28;45266;-59
2022/08/22 08:01:02;;;;;;;;;6.50;4.00;;;;;22.70;43.63;101035.91;5082605;28;45547;-59
2022/08/22 08:03:29;;;;;;;;;7.75;6.00;;;;;22.76;43.72;101034.66;5068340;27;46088;-60
2022/08/22 08:05:55;;;;;;;;;7.00;5.00;;;;;22.80;43.28;101041.53;5062748;28;45467;-59
2022/08/22 08:08:30;;;;;;;;;7.25;6.25;;;;;22.84;43.49;101040.41;5062782;28;45231;-58
2022/08/22 08:10:58;;;;;;;;;7.50;4.75;;;;;22.83;43.20;101027.97;5062871;28;45390;-58
2022/08/22 08:13:40;;;;;;;;;6.50;5.50;;;;;22.86;43.34;101022.41;5062495;28;46035;-58
2022/08/22 08:16:11;;;;;;;;;7.00;5.50;;;;;22.89;43.39;101032.06;5062514;28;45318;-58
2022/08/22 08:18:38;;;;;;;;;5.50;4.25;;;;;22.91;43.18;101035.53;5062423;28;45367;-58
2022/08/22 08:21:13;;;;;;;;;6.00;5.00;;;;;22.93;43.27;101030.94;5062422;28;45257;-59
2022/08/22 08:23:44;;;;;;;;;6.50;5.50;;;;;22.97;43.14;101040.50;5062709;28;45343;-58
2022/08/22 08:26:19;;;;;;;;;5.75;5.25;;;;;22.98;43.26;101039.56;5062365;28;45348;-59
2022/08/22 08:28:50;;;;;;;;;5.00;4.50;;;;;23.01;43.11;101042.03;5061337;28;45282;-58
2022/08/22 08:31:37;;;;;;;;;7.75;5.50;;;;;23.03;43.16;101044.59;5062106;28;45238;-58
2022/08/22 08:34:20;;;;;;;;;5.50;4.00;;;;;23.07;42.98;101045.28;5060791;28;47151;-58
2022/08/22 08:36:52;;;;;;;;;4.50;4.50;;;;;23.13;42.84;101042.22;5062415;28;45189;-58
2022/08/22 08:39:30;;;;;;;;;5.25;5.00;;;;;23.16;42.91;101042.94;5062436;28;45339;-58
2022/08/22 08:42:05;;;;;;;;;4.50;4.50;;;;;23.21;42.54;101039.97;5062350;28;45326;-58
2022/08/22 08:44:42;;;;;;;;;4.50;4.25;;;;;23.27;42.83;101033.34;5061926;28;45319;-58
2022/08/22 08:47:10;;;;;;;;;5.25;4.25;;;;;23.32;42.88;101034.78;5061914;28;45232;-59
2022/08/22 08:49:35;;;;;;;;;7.00;5.50;;;;;23.36;42.71;101032.78;5064976;28;45256;-58
2022/08/22 08:52:17;;;;;;;;;7.00;7.00;;;;;23.42;42.60;101032.41;5075319;28;45443;-59
2022/08/22 08:55:10;;;;;;;;;5.00;5.00;;;;;23.49;42.83;101022.13;5082384;27;46161;-58
2022/08/22 08:57:51;;;;;;;;;4.00;3.75;;;;;23.58;43.00;101023.34;5061428;28;45297;-59
2022/08/22 09:00:25;;;;;;;;;5.25;3.75;;;;;23.64;42.76;101018.44;5076642;28;45453;-58
2022/08/22 09:03:07;;;;;;;;;4.50;3.75;;;;;23.76;42.52;101019.47;5071866;28;45371;-58
2022/08/22 09:05:57;;;;;;;;;5.00;4.00;;;;;23.83;42.55;101012.72;5079382;28;45253;-58
2022/08/22 09:08:41;;;;;;;;;6.00;5.00;;;;;23.90;42.54;101005.16;5081295;28;45457;-58
2022/08/22 09:11:24;;;;;;;;;4.25;4.00;;;;;23.98;42.46;101008.19;5082112;28;45446;-58
2022/08/22 09:13:55;;;;;;;;;9.25;5.00;;;;;24.04;42.27;101003.38;5081755;28;45501;-58
2022/08/22 09:16:45;;;;;;;;;6.75;4.00;;;;;24.07;42.37;101005.88;5081725;28;47202;-59
2022/08/22 09:19:36;;;;;;;;;4.00;4.00;;;;;24.09;42.34;101004.81;5081774;28;45330;-59
2022/08/22 09:22:23;;;;;;;;;3.75;3.50;;;;;24.15;42.17;101000.84;5081994;27;45255;-59
2022/08/22 09:25:19;;;;;;;;;5.00;5.00;;;;;24.18;42.07;100993.44;5081979;28;45254;-59
2022/08/22 09:27:45;;;;;;;;;3.00;3.00;;;;;24.21;42.29;100996.91;5081706;28;45207;-59
2022/08/22 09:30:14;;;;;;;;;6.50;4.75;;;;;24.25;41.80;100996.59;5073499;28;45291;-59
2022/08/22 09:33:04;;;;;;;;;4.75;3.25;;;;;24.29;42.23;100992.72;5075635;28;45354;-59
2022/08/22 09:35:59;;;;;;;;;2.75;2.00;;;;;24.35;41.84;100991.44;5081542;27;45220;-59
2022/08/22 09:38:37;;;;;;;;;4.00;4.00;;;;;24.44;41.54;100998.88;5081571;28;46528;-59
2022/08/22 09:41:13;;;;;;;;;3.50;3.25;;;;;24.52;42.08;100992.97;5066477;28;45362;-59
2022/08/22 09:43:58;;;;;;;;;6.00;5.00;;;;;24.57;41.76;100993.50;5081746;28;45360;-59
2022/08/22 09:46:28;;;;;;;;;5.75;4.75;;;;;24.62;41.55;100988.66;5081280;28;45330;-59
2022/08/22 09:49:03;;;;;;;;;3.25;3.25;;;;;24.67;41.41;100989.25;5081226;28;46366;-59
2022/08/22 09:51:50;;;;;;;;;7.50;4.00;;;;;24.72;41.33;100982.69;5072790;28;45240;-59
2022/08/22 09:54:21;;;;;;;;;3.75;3.75;;;;;24.78;41.55;100974.19;5081530;28;45264;-59
2022/08/22 09:56:49;;;;;;;;;4.50;4.25;;;;;24.82;41.90;100971.19;5081278;28;45239;-59
2022/08/22 09:59:56;;;;;;;;;5.00;5.00;;;;;24.88;41.59;100983.34;5081060;28;46167;-59
2022/08/22 10:02:31;;;;;;;;;5.00;4.00;;;;;24.93;41.18;100978.50;5052883;28;45532;-59
2022/08/22 10:05:11;;;;;;;;;4.50;3.75;;;;;24.99;41.28;100986.13;5060855;28;45358;-58
2022/08/22 10:07:47;;;;;;;;;4.50;3.00;;;;;25.09;41.13;100977.38;5067966;28;45367;-58
2022/08/22 10:10:16;;;;;;;;;3.75;2.75;;;;;25.18;40.97;100979.41;5081107;28;46246;-58
2022/08/22 10:13:03;;;;;;;;;3.00;3.00;;;;;25.24;40.93;100983.47;5081105;28;45502;-58
2022/08/22 10:15:38;;;;;;;;;4.00;3.50;;;;;25.28;41.11;100987.66;5081044;27;45289;-58
2022/08/22 10:18:24;;;;;;;;;2.25;1.50;;;;;25.39;41.01;100987.78;5080925;28;45487;-58
2022/08/22 10:21:13;;;;;;;;;4.25;2.50;;;;;25.46;41.02;100997.13;5079730;28;45423;-58
2022/08/22 10:23:46;;;;;;;;;5.75;3.00;;;;;25.61;40.91;100981.69;5081215;28;45289;-58
2022/08/22 10:26:21;;;;;;;;;2.00;2.00;;;;;25.78;40.96;100991.16;5080791;28;45464;-58
2022/08/22 10:29:01;;;;;;;;;4.50;3.75;;;;;25.96;40.41;100983.56;5081071;28;45244;-58
2022/08/22 10:31:35;;;;;;;;;2.50;2.50;;;;;26.16;40.47;100975.81;5080583;28;45341;-58
2022/08/22 10:34:20;;;;;;;;;3.75;3.50;;;;;26.41;40.80;100982.00;5080784;28;45523;-58
2022/08/22 10:36:57;;;;;;;;;3.25;3.25;;;;;26.63;40.38;100977.63;5080953;28;45272;-58
2022/08/22 10:39:36;;;;;;;;;4.00;3.00;;;;;26.82;40.78;100985.16;5080890;28;45264;-58
2022/08/22 10:42:18;;;;;;;;;3.25;3.00;;;;;27.03;40.23;100977.19;5080628;28;46474;-58
2022/08/22 10:44:57;;;;;;;;;2.75;2.75;;;;;27.27;40.02;100982.47;5080628;28;45348;-58
2022/08/22 10:47:36;;;;;;;;;1.50;1.50;;;;;27.49;40.43;100989.69;5080570;28;45231;-58
2022/08/22 10:50:46;;;;;;;;;3.00;3.00;;;;;27.73;40.33;100977.84;5075165;28;45462;-58
2022/08/22 10:53:29;;;;;;;;;5.00;3.00;;;;;27.93;40.17;100969.91;5007404;28;46817;-58
2022/08/22 10:56:07;;;;;;;;;3.00;3.00;;;;;28.20;40.19;100981.09;5017889;28;45371;-58
2022/08/22 10:58:47;;;;;;;;;3.75;2.75;;;;;28.56;40.68;100971.81;5048097;28;45604;-58
2022/08/22 11:01:17;;;;;;;;;4.75;3.50;;;;;28.93;40.17;100972.16;5063253;28;45365;-58
2022/08/22 11:03:50;;;;;;;;;5.25;3.50;;;;;29.29;40.09;100967.16;5063555;27;46166;-59
2022/08/22 11:06:29;;;;;;;;;3.75;3.00;;;;;29.74;40.14;100967.69;5060120;28;45417;-59
2022/08/22 11:09:16;;;;;;;;;2.00;2.00;;;;;30.14;40.04;100967.53;5060138;28;45246;-58
2022/08/22 11:11:47;;;;;;;;;4.75;2.75;;;;;30.64;39.80;100971.91;5060021;28;45320;-58
2022/08/22 11:14:43;;;;;;;;;6.50;3.00;;;;;31.15;39.59;100968.84;5059988;28;45935;-57
2022/08/22 11:17:08;;;;;;;;;0.00;0.00;;;;;31.66;39.12;100974.72;5059825;28;45219;-56
2022/08/22 11:20:09;;;;;;;;;3.75;3.00;;;;;32.14;38.67;100980.72;5059803;28;45208;-58
2022/08/22 11:22:55;;;;;;;;;1.75;1.75;;;;;32.48;38.13;100984.56;5071310;28;45270;-59
2022/08/22 11:25:50;;;;;;;;;3.75;3.75;;;;;32.74;37.91;100976.41;5071237;28;46406;-59
2022/08/22 11:28:38;;;;;;;;;2.00;2.00;;;;;32.97;37.92;100974.00;5077851;28;45359;-59
2022/08/22 11:31:25;;;;;;;;;2.00;2.00;;;;;33.22;37.58;100969.50;5081111;28;45215;-60
2022/08/22 11:33:57;;;;;;;;;2.25;2.25;;;;;33.52;37.27;100961.78;5083533;28;45231;-60
2022/08/22 11:36:38;;;;;;;;;2.50;2.50;;;;;33.73;36.83;100973.22;5083608;28;46282;-59
2022/08/22 11:39:15;;;;;;;;;1.50;1.50;;;;;33.90;36.27;100968.63;5083868;28;45515;-59
2022/08/22 11:42:13;;;;;;;;;3.00;3.00;;;;;33.90;35.83;100974.09;5083789;28;45423;-58
2022/08/22 11:44:45;;;;;;;;;1.50;1.50;;;;;33.82;35.54;100972.22;5062638;28;45246;-57
2022/08/22 11:47:14;;;;;;;;;2.50;2.50;;;;;33.78;35.34;100968.94;5076236;28;46367;-58
2022/08/22 11:49:59;;;;;;;;;2.25;1.00;;;;;33.90;35.69;100965.91;5080985;28;45326;-59
2022/08/22 11:52:52;;;;;;;;;2.75;2.00;;;;;34.08;35.65;100972.06;5079932;28;45530;-59
2022/08/22 11:55:25;;;;;;;;;2.00;1.00;;;;;34.22;35.37;100964.22;5068471;28;45383;-59
2022/08/22 11:58:29;;;;;;;;;1.00;1.00;;;;;34.42;35.38;100959.28;5070907;28;45443;-58
2022/08/22 12:01:00;;;;;;;;;1.50;1.50;;;;;34.78;35.14;100958.81;5032212;28;45434;-57
2022/08/22 12:03:25;;;;;;;;;2.00;1.00;;;;;35.05;35.06;100951.25;5078256;28;45210;-58
2022/08/22 12:06:02;;;;;;;;;1.75;1.50;;;;;35.16;34.67;100950.84;5062943;28;45274;-58
2022/08/22 12:08:34;;;;;;;;;1.25;1.25;;;;;35.20;34.34;100957.63;5062882;28;45411;-58
2022/08/22 12:11:29;;;;;;;;;0.75;0.75;;;;;35.11;33.64;100961.44;5062845;28;45377;-58
2022/08/22 12:14:02;;;;;;;;;1.00;1.00;;;;;35.01;33.38;100961.66;5069830;28;45534;-58
2022/08/22 12:16:36;;;;;;;;;1.75;1.75;;;;;34.90;33.75;100962.88;5082807;28;45269;-58
2022/08/22 12:19:13;;;;;;;;;1.50;1.00;;;;;34.70;33.01;100961.59;5072682;28;46572;-58
2022/08/22 12:22:03;;;;;;;;;2.00;2.00;;;;;34.40;32.74;100966.75;5079869;28;45421;-58
2022/08/22 12:24:53;;;;;;;;;1.50;1.50;;;;;34.06;32.61;100959.63;5067992;28;45416;-57
2022/08/22 12:27:30;;;;;;;;;0.00;0.00;;;;;33.63;32.38;100951.56;5082616;28;45250;-58